Time;durP1;ratioP1;P1;durP2;ratioP2;P2;SDS_P1;SDS_P2;PMS_P1;PMS_P2;Temp;Humidity;BMP_temperature;BMP_pressure;BME280_temperature;BME280_humidity;BME280_pressure;Samples;Min_cycle;Max_cycle;Signal;HPM_P1;HPM_P2
2023/12/24 00:00:40;;;;;;;0.75;0.40;;;3.50;99.90;;;;;;4995318;28;20018;-73
2023/12/24 00:03:05;;;;;;;0.90;0.20;;;3.50;99.90;;;;;;4996369;28;20393;-73
2023/12/24 00:05:31;;;;;;;0.10;0.10;;;3.40;99.90;;;;;;4996899;28;20031;-73
2023/12/24 00:07:56;;;;;;;0.38;0.30;;;3.40;99.90;;;;;;4997169;28;20027;-74
2023/12/24 00:10:22;;;;;;;0.17;0.17;;;3.40;99.90;;;;;;5001508;28;20100;-74
2023/12/24 00:12:48;;;;;;;0.60;0.30;;;3.50;99.90;;;;;;4998726;28;20031;-74
2023/12/24 00:15:15;;;;;;;0.70;0.13;;;3.50;99.90;;;;;;4999095;28;20050;-73
2023/12/24 00:17:41;;;;;;;0.30;0.15;;;3.50;99.90;;;;;;5000905;28;20098;-74
2023/12/24 00:20:07;;;;;;;0.20;0.20;;;3.60;99.90;;;;;;5004849;28;20046;-74
2023/12/24 00:22:33;;;;;;;0.13;0.13;;;3.60;99.90;;;;;;5005165;28;20057;-74
2023/12/24 00:24:58;;;;;;;1.08;0.30;;;3.60;99.90;;;;;;5004727;28;20022;-74
2023/12/24 00:27:24;;;;;;;0.20;0.20;;;3.60;99.90;;;;;;5006285;28;20046;-74
2023/12/24 00:29:49;;;;;;;0.13;0.13;;;3.60;99.90;;;;;;5007005;28;20388;-73
2023/12/24 00:32:16;;;;;;;0.15;0.15;;;3.60;99.90;;;;;;5005803;28;20026;-74
2023/12/24 00:34:42;;;;;;;0.82;0.20;;;3.70;99.90;;;;;;5005693;28;20022;-74
2023/12/24 00:37:08;;;;;;;0.20;0.20;;;3.70;99.90;;;;;;5006049;28;20034;-73
2023/12/24 00:39:33;;;;;;;0.00;0.00;;;3.70;99.90;;;;;;5007171;28;20037;-75
2023/12/24 00:41:59;;;;;;;0.10;0.10;;;3.80;99.90;;;;;;5007142;28;20037;-74
2023/12/24 00:44:25;;;;;;;0.20;0.20;;;3.80;99.90;;;;;;5007766;28;20181;-73
2023/12/24 00:46:51;;;;;;;1.67;0.10;;;3.80;99.90;;;;;;5008738;28;20033;-74
2023/12/24 00:49:17;;;;;;;0.93;0.35;;;3.90;99.90;;;;;;5008528;28;20058;-74
2023/12/24 00:51:43;;;;;;;0.63;0.20;;;4.00;99.90;;;;;;5009790;28;20026;-74
2023/12/24 00:54:12;;;;;;;0.10;0.10;;;4.00;99.90;;;;;;5009664;28;20045;-74
2023/12/24 00:56:37;;;;;;;0.20;0.20;;;4.00;99.90;;;;;;5007349;28;20116;-73
2023/12/24 00:59:03;;;;;;;0.30;0.30;;;4.00;99.90;;;;;;4994253;28;20069;-77
2023/12/24 01:01:29;;;;;;;0.13;0.13;;;4.10;99.90;;;;;;4994254;28;20129;-73
2023/12/24 01:03:54;;;;;;;0.20;0.20;;;4.10;99.90;;;;;;4994824;28;20074;-72
2023/12/24 01:06:20;;;;;;;0.35;0.35;;;4.20;99.90;;;;;;4995376;28;20026;-75
2023/12/24 01:08:45;;;;;;;0.20;0.20;;;4.20;99.90;;;;;;4993611;28;20477;-74
2023/12/24 01:11:12;;;;;;;2.72;0.50;;;4.20;99.90;;;;;;4995063;28;20030;-73
2023/12/24 01:13:38;;;;;;;0.60;0.45;;;4.30;99.90;;;;;;4973058;28;20501;-74
2023/12/24 01:16:04;;;;;;;0.30;0.30;;;4.30;99.90;;;;;;4980138;28;20041;-73
2023/12/24 01:18:30;;;;;;;3.03;0.25;;;4.30;99.90;;;;;;4992177;28;20081;-73
2023/12/24 01:20:56;;;;;;;0.35;0.35;;;4.30;99.90;;;;;;4994885;28;20030;-73
2023/12/24 01:23:23;;;;;;;0.47;0.47;;;4.30;99.90;;;;;;4993428;28;20026;-73
2023/12/24 01:25:48;;;;;;;0.75;0.75;;;4.40;99.90;;;;;;4993574;28;20050;-73
2023/12/24 01:28:14;;;;;;;0.38;0.38;;;4.40;99.90;;;;;;4993250;28;20505;-72
2023/12/24 01:30:40;;;;;;;0.75;0.40;;;4.50;99.90;;;;;;4993251;28;20056;-73
2023/12/24 01:33:06;;;;;;;0.30;0.30;;;4.40;99.90;;;;;;4993229;28;20030;-73
2023/12/24 01:35:32;;;;;;;0.52;0.52;;;4.30;99.90;;;;;;4994532;28;20030;-74
2023/12/24 01:37:57;;;;;;;0.40;0.40;;;4.40;99.90;;;;;;4991263;28;20613;-73
2023/12/24 01:40:23;;;;;;;0.68;0.30;;;4.30;99.90;;;;;;4973434;28;20019;-73
2023/12/24 01:42:49;;;;;;;0.20;0.20;;;4.30;99.90;;;;;;4974066;28;20102;-73
2023/12/24 01:45:14;;;;;;;0.28;0.28;;;4.10;99.90;;;;;;4973925;28;20489;-73
2023/12/24 01:47:42;;;;;;;2.03;0.50;;;4.10;99.90;;;;;;4972814;28;20030;-73
2023/12/24 01:50:08;;;;;;;0.22;0.20;;;4.10;99.90;;;;;;4974566;28;20105;-73
2023/12/24 01:52:35;;;;;;;2.67;0.75;;;4.10;99.90;;;;;;4975036;28;20023;-73
2023/12/24 01:55:00;;;;;;;0.40;0.30;;;4.10;99.90;;;;;;4973450;28;20121;-76
2023/12/24 01:57:29;;;;;;;0.75;0.20;;;4.10;99.90;;;;;;4974545;28;20109;-75
2023/12/24 01:59:55;;;;;;;2.55;0.38;;;4.10;99.90;;;;;;4973692;28;20033;-76
2023/12/24 02:02:21;;;;;;;0.10;0.10;;;4.20;99.90;;;;;;4974769;28;20493;-75
2023/12/24 02:04:48;;;;;;;0.00;0.00;;;4.30;99.90;;;;;;4974795;28;20058;-75
2023/12/24 02:07:15;;;;;;;0.00;0.00;;;4.40;99.90;;;;;;4974625;28;20034;-75
2023/12/24 02:09:42;;;;;;;0.00;0.00;;;4.60;99.90;;;;;;4974614;28;20022;-76
2023/12/24 02:12:08;;;;;;;0.00;0.00;;;4.80;99.90;;;;;;4973310;28;20409;-76
2023/12/24 02:14:34;;;;;;;0.10;0.10;;;4.90;99.90;;;;;;4973607;28;20027;-75
2023/12/24 02:17:01;;;;;;;0.10;0.10;;;4.90;99.90;;;;;;4974103;28;20034;-75
2023/12/24 02:19:27;;;;;;;0.20;0.20;;;4.90;99.90;;;;;;4974301;28;20027;-76
2023/12/24 02:21:52;;;;;;;0.63;0.20;;;5.00;99.90;;;;;;4973073;28;20038;-76
2023/12/24 02:24:18;;;;;;;1.02;0.60;;;4.80;99.90;;;;;;4974081;28;20022;-76
2023/12/24 02:26:58;;;;;;;6.75;0.35;;;4.80;99.90;;;;;;4973956;28;20030;-75
2023/12/24 02:29:27;;;;;;;0.55;0.30;;;4.70;99.90;;;;;;4972935;28;20098;-75
2023/12/24 02:32:01;;;;;;;0.88;0.20;;;4.70;99.90;;;;;;4974060;28;20473;-76
2023/12/24 02:34:29;;;;;;;0.15;0.05;;;4.70;99.90;;;;;;4974087;28;20034;-75
2023/12/24 02:36:55;;;;;;;0.13;0.10;;;4.80;99.90;;;;;;4972531;28;20027;-75
2023/12/24 02:39:21;;;;;;;0.13;0.10;;;4.70;99.90;;;;;;4974199;28;20109;-75
2023/12/24 02:41:46;;;;;;;0.00;0.00;;;4.70;99.90;;;;;;4973041;28;20117;-75
2023/12/24 02:44:12;;;;;;;0.10;0.10;;;4.60;99.90;;;;;;4974038;28;20023;-75
2023/12/24 02:46:38;;;;;;;0.10;0.10;;;4.70;99.90;;;;;;4973709;28;20485;-75
2023/12/24 02:49:03;;;;;;;0.00;0.00;;;4.60;99.90;;;;;;4973817;28;20041;-75
2023/12/24 02:51:29;;;;;;;0.10;0.10;;;4.60;99.90;;;;;;4972618;28;20437;-75
2023/12/24 02:53:55;;;;;;;0.10;0.10;;;4.70;99.90;;;;;;4972319;28;20042;-76
2023/12/24 02:56:20;;;;;;;0.00;0.00;;;4.70;99.90;;;;;;4972354;28;20034;-74
2023/12/24 02:58:46;;;;;;;0.10;0.10;;;4.60;99.90;;;;;;4972216;28;20118;-75
2023/12/24 03:01:11;;;;;;;0.05;0.03;;;4.50;99.90;;;;;;4973651;28;20442;-74
2023/12/24 03:03:37;;;;;;;0.13;0.13;;;4.40;99.90;;;;;;4973565;28;20418;-75
2023/12/24 03:06:03;;;;;;;0.00;0.00;;;4.40;99.90;;;;;;4972171;28;20117;-75
2023/12/24 03:08:29;;;;;;;0.20;0.20;;;4.40;99.90;;;;;;4971923;28;20163;-75
2023/12/24 03:10:54;;;;;;;0.15;0.15;;;4.40;99.90;;;;;;4973493;28;20027;-75
2023/12/24 03:13:20;;;;;;;0.20;0.10;;;4.40;99.90;;;;;;4972258;28;20086;-75
2023/12/24 03:15:45;;;;;;;0.10;0.10;;;4.40;99.90;;;;;;4973419;28;20452;-76
2023/12/24 03:18:11;;;;;;;0.30;0.28;;;4.30;99.90;;;;;;4971891;28;20023;-75
2023/12/24 03:20:37;;;;;;;0.63;0.22;;;4.30;99.90;;;;;;4974316;28;20084;-74
2023/12/24 03:23:03;;;;;;;0.10;0.10;;;4.30;99.90;;;;;;4974869;28;20030;-75
2023/12/24 03:25:28;;;;;;;0.10;0.10;;;4.20;99.90;;;;;;4973588;28;20030;-75
2023/12/24 03:27:54;;;;;;;0.00;0.00;;;4.20;99.90;;;;;;4974785;28;20027;-75
2023/12/24 03:30:20;;;;;;;0.10;0.10;;;4.10;99.90;;;;;;4974848;28;20027;-76
2023/12/24 03:32:45;;;;;;;0.10;0.10;;;4.20;99.90;;;;;;4977916;28;20038;-76
2023/12/24 03:35:11;;;;;;;0.00;0.00;;;4.30;99.90;;;;;;4977766;28;20041;-75
2023/12/24 03:37:37;;;;;;;0.00;0.00;;;4.10;99.90;;;;;;4977981;28;20030;-75
2023/12/24 03:40:02;;;;;;;0.10;0.10;;;4.10;99.90;;;;;;4978291;28;20030;-76
2023/12/24 03:42:28;;;;;;;2.30;0.10;;;4.20;99.90;;;;;;4977854;28;20023;-76
2023/12/24 03:44:54;;;;;;;0.00;0.00;;;4.10;99.90;;;;;;4973127;28;20434;-75
2023/12/24 03:47:19;;;;;;;0.20;0.20;;;4.10;99.90;;;;;;4973093;28;20030;-75
2023/12/24 03:49:45;;;;;;;0.10;0.10;;;4.20;99.90;;;;;;4972172;28;20493;-75
2023/12/24 03:52:10;;;;;;;0.32;0.03;;;4.20;99.90;;;;;;4973164;28;20501;-75
2023/12/24 03:54:36;;;;;;;0.00;0.00;;;4.20;99.90;;;;;;4972957;28;20042;-75
2023/12/24 03:57:02;;;;;;;0.10;0.10;;;4.20;99.90;;;;;;4972900;28;20039;-75
2023/12/24 03:59:28;;;;;;;0.10;0.10;;;4.00;99.90;;;;;;4971794;28;20030;-75
2023/12/24 04:01:54;;;;;;;0.10;0.10;;;4.00;99.90;;;;;;4971805;28;20111;-75
2023/12/24 04:04:20;;;;;;;0.03;0.00;;;3.90;99.90;;;;;;4972787;28;20109;-75
2023/12/24 04:06:46;;;;;;;0.20;0.20;;;3.90;99.90;;;;;;4972744;28;20027;-75
2023/12/24 04:09:12;;;;;;;0.00;0.00;;;4.00;99.90;;;;;;4971692;28;20157;-75
2023/12/24 04:11:37;;;;;;;0.00;0.00;;;4.00;99.90;;;;;;4972979;28;20489;-75
2023/12/24 04:14:03;;;;;;;0.38;0.28;;;4.00;99.90;;;;;;4972805;28;20066;-75
2023/12/24 04:16:28;;;;;;;0.00;0.00;;;4.00;99.90;;;;;;4971591;28;20033;-76
2023/12/24 04:18:54;;;;;;;0.05;0.05;;;4.10;99.90;;;;;;4971256;28;20481;-76
2023/12/24 04:21:20;;;;;;;0.88;0.17;;;4.10;99.90;;;;;;4971746;28;20404;-75
2023/12/24 04:23:45;;;;;;;0.10;0.10;;;4.10;99.90;;;;;;4972660;28;20071;-75
2023/12/24 04:26:11;;;;;;;0.20;0.20;;;4.10;99.90;;;;;;4972758;28;20077;-75
2023/12/24 04:28:37;;;;;;;2.63;0.10;;;4.10;99.90;;;;;;4972627;28;20374;-75
2023/12/24 04:31:02;;;;;;;0.30;0.13;;;4.20;99.90;;;;;;4972733;28;20031;-75
2023/12/24 04:33:29;;;;;;;1.55;0.17;;;4.10;99.90;;;;;;4973288;28;20031;-75
2023/12/24 04:35:55;;;;;;;0.70;0.10;;;4.10;99.90;;;;;;4971518;28;20081;-74
2023/12/24 04:38:20;;;;;;;4.65;0.45;;;4.10;99.90;;;;;;4973292;28;20113;-76
2023/12/24 04:40:46;;;;;;;0.08;0.00;;;4.10;99.90;;;;;;4976274;28;20027;-74
2023/12/24 04:43:11;;;;;;;0.10;0.10;;;4.20;99.90;;;;;;4976157;28;20027;-74
2023/12/24 04:45:37;;;;;;;0.28;0.10;;;4.20;99.90;;;;;;4975019;28;20457;-75
2023/12/24 04:48:03;;;;;;;0.10;0.10;;;4.30;99.90;;;;;;4975988;28;20031;-75
2023/12/24 04:50:29;;;;;;;1.17;0.20;;;4.60;99.90;;;;;;4976247;28;20560;-76
2023/12/24 04:52:55;;;;;;;0.10;0.10;;;5.60;99.90;;;;;;4974654;28;20109;-75
2023/12/24 04:55:20;;;;;;;0.00;0.00;;;6.20;99.90;;;;;;4975966;28;20342;-75
2023/12/24 04:57:46;;;;;;;0.08;0.08;;;6.90;99.90;;;;;;4975647;28;20684;-74
2023/12/24 05:00:12;;;;;;;0.25;0.20;;;7.50;99.90;;;;;;4975744;28;20061;-74
2023/12/24 05:02:38;;;;;;;0.22;0.22;;;7.90;99.90;;;;;;4975565;28;20029;-74
2023/12/24 05:05:04;;;;;;;0.17;0.17;;;8.10;99.90;;;;;;4975606;28;20031;-75
2023/12/24 05:07:30;;;;;;;0.57;0.20;;;8.30;99.90;;;;;;4975224;28;20098;-75
2023/12/24 05:09:55;;;;;;;0.47;0.20;;;8.40;99.40;;;;;;4974333;28;20026;-75
2023/12/24 05:12:21;;;;;;;0.00;0.00;;;8.60;98.60;;;;;;4974384;28;20041;-75
2023/12/24 05:14:47;;;;;;;0.20;0.20;;;8.60;98.20;;;;;;4975490;28;20477;-76
2023/12/24 05:17:13;;;;;;;0.20;0.20;;;8.60;97.70;;;;;;4975154;28;20037;-75
2023/12/24 05:19:39;;;;;;;0.10;0.08;;;8.80;96.60;;;;;;4975281;28;20022;-74
2023/12/24 05:22:04;;;;;;;0.25;0.08;;;8.70;96.30;;;;;;4975331;28;20493;-75
2023/12/24 05:24:30;;;;;;;0.10;0.10;;;8.70;96.00;;;;;;4975147;28;20401;-76
2023/12/24 05:26:55;;;;;;;0.30;0.30;;;8.70;95.90;;;;;;4974973;28;20026;-75
2023/12/24 05:29:21;;;;;;;0.10;0.10;;;8.70;95.20;;;;;;4975163;28;20033;-74
2023/12/24 05:31:47;;;;;;;0.10;0.10;;;8.80;95.00;;;;;;4975203;28;20026;-75
2023/12/24 05:34:12;;;;;;;0.43;0.00;;;8.70;95.30;;;;;;4973943;28;20031;-75
2023/12/24 05:36:38;;;;;;;0.45;0.10;;;8.90;94.10;;;;;;4974773;28;20398;-75
2023/12/24 05:39:05;;;;;;;0.10;0.10;;;8.90;94.50;;;;;;4973677;28;21053;-75
2023/12/24 05:41:31;;;;;;;0.30;0.10;;;8.90;93.30;;;;;;4975062;28;20019;-75
2023/12/24 05:43:57;;;;;;;0.10;0.10;;;8.90;93.00;;;;;;4973629;28;20034;-74
2023/12/24 05:46:24;;;;;;;0.35;0.35;;;8.90;92.80;;;;;;4973498;28;20490;-74
2023/12/24 05:48:49;;;;;;;0.00;0.00;;;8.90;92.60;;;;;;4973440;28;20038;-75
2023/12/24 05:51:15;;;;;;;0.30;0.10;;;8.80;93.10;;;;;;4974715;28;20046;-75
2023/12/24 05:53:41;;;;;;;1.60;0.17;;;8.60;93.80;;;;;;4973246;28;20039;-75
2023/12/24 05:56:08;;;;;;;0.20;0.20;;;8.60;93.90;;;;;;4974754;28;20493;-74
2023/12/24 05:58:34;;;;;;;0.10;0.10;;;8.50;93.90;;;;;;4973108;28;20033;-75
2023/12/24 06:01:00;;;;;;;0.20;0.10;;;8.40;94.50;;;;;;4973439;28;20027;-75
2023/12/24 06:03:25;;;;;;;0.10;0.10;;;8.30;94.50;;;;;;4974469;28;20121;-75
2023/12/24 06:05:51;;;;;;;0.43;0.20;;;8.20;94.90;;;;;;4974390;28;20388;-76
2023/12/24 06:08:17;;;;;;;0.00;0.00;;;8.10;94.90;;;;;;4974214;28;20026;-75
2023/12/24 06:10:43;;;;;;;0.20;0.20;;;8.20;94.00;;;;;;4974479;28;20448;-75
2023/12/24 06:13:09;;;;;;;1.10;0.20;;;8.30;93.90;;;;;;4973759;28;20030;-76
2023/12/24 06:15:35;;;;;;;0.08;0.08;;;8.40;93.30;;;;;;4976963;28;20033;-76
2023/12/24 06:18:01;;;;;;;0.35;0.30;;;8.40;93.60;;;;;;4976353;28;20460;-77
2023/12/24 06:20:29;;;;;;;0.32;0.30;;;8.30;93.90;;;;;;4975441;28;20015;-77
2023/12/24 06:22:55;;;;;;;1.17;0.28;;;8.30;93.80;;;;;;4974351;28;20023;-75
2023/12/24 06:25:21;;;;;;;0.10;0.10;;;8.20;94.40;;;;;;4976427;28;20026;-76
2023/12/24 06:27:47;;;;;;;0.45;0.25;;;8.20;94.10;;;;;;4978681;28;20027;-76
2023/12/24 06:30:13;;;;;;;0.10;0.10;;;8.20;94.70;;;;;;4977928;28;20563;-75
2023/12/24 06:32:41;;;;;;;0.05;0.05;;;8.10;94.40;;;;;;4976412;28;20027;-75
2023/12/24 06:35:08;;;;;;;1.40;0.32;;;8.00;94.50;;;;;;4974845;28;20077;-75
2023/12/24 06:37:33;;;;;;;0.20;0.20;;;8.10;94.20;;;;;;4973320;28;20064;-75
2023/12/24 06:39:59;;;;;;;0.20;0.20;;;8.10;93.90;;;;;;4972899;28;20027;-75
2023/12/24 06:42:25;;;;;;;0.20;0.10;;;8.10;93.90;;;;;;4972745;28;20030;-75
2023/12/24 06:44:50;;;;;;;0.17;0.17;;;8.00;94.10;;;;;;4973746;28;20030;-76
2023/12/24 06:47:16;;;;;;;0.52;0.40;;;7.90;95.30;;;;;;4973586;28;20031;-75
2023/12/24 06:49:44;;;;;;;0.40;0.35;;;7.70;96.50;;;;;;4973624;28;20027;-75
2023/12/24 06:52:10;;;;;;;0.57;0.20;;;7.50;98.40;;;;;;4973763;28;20023;-74
2023/12/24 06:54:36;;;;;;;0.90;0.68;;;7.30;99.30;;;;;;4973555;28;20114;-75
2023/12/24 06:57:02;;;;;;;1.77;0.80;;;7.10;99.90;;;;;;4973545;28;20053;-74
2023/12/24 06:59:28;;;;;;;0.45;0.35;;;6.90;99.90;;;;;;4972239;28;20459;-74
2023/12/24 07:01:53;;;;;;;0.20;0.20;;;6.70;99.90;;;;;;4973130;28;20110;-75
2023/12/24 07:04:19;;;;;;;0.30;0.30;;;6.50;99.90;;;;;;4973368;28;20030;-75
2023/12/24 07:06:44;;;;;;;0.30;0.30;;;6.50;99.90;;;;;;4973494;28;20019;-74
2023/12/24 07:09:11;;;;;;;0.30;0.30;;;6.50;99.90;;;;;;4973552;28;20277;-74
2023/12/24 07:11:36;;;;;;;0.85;0.47;;;6.50;99.90;;;;;;4973463;28;20058;-74
2023/12/24 07:14:03;;;;;;;1.92;1.13;;;6.60;99.90;;;;;;4973417;28;20512;-74
2023/12/24 07:16:28;;;;;;;0.90;0.80;;;6.60;99.90;;;;;;4973807;28;20433;-78
2023/12/24 07:18:54;;;;;;;1.75;0.85;;;7.10;99.90;;;;;;4972379;28;20023;-73
2023/12/24 07:21:20;;;;;;;1.67;0.82;;;7.50;98.20;;;;;;4973815;28;20136;-75
2023/12/24 07:23:46;;;;;;;0.65;0.30;;;7.90;96.30;;;;;;4973662;28;20025;-74
2023/12/24 07:26:12;;;;;;;0.57;0.30;;;8.30;94.00;;;;;;4972132;28;20022;-74
2023/12/24 07:28:37;;;;;;;2.00;0.40;;;8.60;93.20;;;;;;4973247;28;20385;-74
2023/12/24 07:31:04;;;;;;;0.98;0.82;;;8.80;91.90;;;;;;4973562;28;20033;-76
2023/12/24 07:33:29;;;;;;;0.65;0.65;;;9.10;90.50;;;;;;4973277;28;20098;-76
2023/12/24 07:35:55;;;;;;;0.77;0.60;;;9.30;88.40;;;;;;4974696;28;20490;-75
2023/12/24 07:38:21;;;;;;;0.52;0.52;;;9.40;88.10;;;;;;4978216;28;20026;-78
2023/12/24 07:40:46;;;;;;;0.52;0.52;;;9.50;87.80;;;;;;4979146;28;20030;-74
2023/12/24 07:43:12;;;;;;;0.90;0.82;;;9.50;88.00;;;;;;4985207;28;20030;-75
2023/12/24 07:45:37;;;;;;;0.75;0.75;;;9.60;87.30;;;;;;4999372;28;20026;-75
2023/12/24 07:48:03;;;;;;;2.58;1.73;;;9.60;88.40;;;;;;4998753;28;20105;-74
2023/12/24 07:50:29;;;;;;;2.20;1.40;;;9.50;89.80;;;;;;4999358;28;20125;-74
2023/12/24 07:52:55;;;;;;;1.40;1.02;;;9.40;91.20;;;;;;4998805;28;20077;-74
2023/12/24 07:55:20;;;;;;;0.52;0.50;;;9.40;90.40;;;;;;4983055;23;20494;-77
2023/12/24 07:57:46;;;;;;;0.82;0.57;;;9.50;86.90;;;;;;4954727;29;20034;-77
2023/12/24 08:00:13;;;;;;;0.85;0.77;;;9.70;86.30;;;;;;4955264;28;20402;-77
2023/12/24 08:02:39;;;;;;;0.50;0.50;;;9.80;86.20;;;;;;4955522;29;20019;-77
2023/12/24 08:05:05;;;;;;;0.57;0.28;;;9.80;85.10;;;;;;4940293;29;20034;-79
2023/12/24 08:07:31;;;;;;;0.30;0.30;;;10.00;83.90;;;;;;4937898;29;20028;-77
2023/12/24 08:09:57;;;;;;;1.67;0.93;;;10.10;81.60;;;;;;4937466;29;20039;-78
2023/12/24 08:12:23;;;;;;;0.40;0.40;;;10.30;80.80;;;;;;4965376;28;20032;-77
2023/12/24 08:14:48;;;;;;;0.32;0.32;;;10.40;79.20;;;;;;4960674;28;20066;-77
2023/12/24 08:17:14;;;;;;;0.30;0.30;;;10.50;79.20;;;;;;4959935;29;20478;-77
2023/12/24 08:19:39;;;;;;;0.20;0.20;;;10.60;77.40;;;;;;4974035;28;20512;-78
2023/12/24 08:22:05;;;;;;;0.47;0.47;;;10.70;77.40;;;;;;4960115;29;20382;-78
2023/12/24 08:24:31;;;;;;;1.50;0.93;;;10.70;77.90;;;;;;4974577;28;20063;-78
2023/12/24 08:26:57;;;;;;;2.75;0.60;;;10.70;78.00;;;;;;4974936;28;20023;-78
2023/12/24 08:29:22;;;;;;;0.40;0.40;;;10.70;77.80;;;;;;4974890;28;20127;-77
2023/12/24 08:31:48;;;;;;;0.20;0.20;;;10.70;77.10;;;;;;4958506;29;20549;-77
2023/12/24 08:34:14;;;;;;;0.45;0.38;;;10.70;77.80;;;;;;4959717;28;20023;-78
2023/12/24 08:36:39;;;;;;;0.75;0.55;;;10.70;77.30;;;;;;4957536;29;20445;-79
2023/12/24 08:39:05;;;;;;;0.30;0.30;;;10.70;77.60;;;;;;4957428;29;20028;-79
2023/12/24 08:41:31;;;;;;;0.43;0.30;;;10.70;76.50;;;;;;4958656;29;20023;-77
2023/12/24 08:43:57;;;;;;;0.75;0.50;;;10.70;77.90;;;;;;4958537;28;20024;-77
2023/12/24 08:46:23;;;;;;;1.50;0.85;;;10.70;78.30;;;;;;4958152;29;20023;-77
2023/12/24 08:48:48;;;;;;;0.88;0.45;;;10.60;82.70;;;;;;4959265;29;20074;-76
2023/12/24 08:51:14;;;;;;;0.80;0.57;;;10.40;86.90;;;;;;4958505;29;20553;-77
2023/12/24 08:53:40;;;;;;;2.80;2.00;;;10.20;90.00;;;;;;4957603;28;20038;-77
2023/12/24 08:56:07;;;;;;;2.38;2.17;;;10.00;90.70;;;;;;4974367;28;20059;-77
2023/12/24 08:58:33;;;;;;;1.42;1.33;;;9.90;92.10;;;;;;4959669;29;20027;-77
2023/12/24 09:00:58;;;;;;;2.22;1.50;;;9.70;93.10;;;;;;4974223;28;20020;-77
2023/12/24 09:03:24;;;;;;;1.67;0.70;;;9.70;93.30;;;;;;4957507;28;20030;-78
2023/12/24 09:05:49;;;;;;;0.28;0.28;;;9.70;90.90;;;;;;4961773;29;20534;-77
2023/12/24 09:08:15;;;;;;;0.17;0.10;;;9.90;86.20;;;;;;4958056;29;20038;-76
2023/12/24 09:10:41;;;;;;;1.63;1.30;;;10.20;83.60;;;;;;4958449;29;20027;-78
2023/12/24 09:13:07;;;;;;;1.20;0.40;;;10.50;80.20;;;;;;4957878;29;20031;-77
2023/12/24 09:15:33;;;;;;;1.02;0.30;;;10.70;79.40;;;;;;4957005;28;20039;-76
2023/12/24 09:17:58;;;;;;;1.65;0.25;;;10.90;78.30;;;;;;4957854;29;20027;-77
2023/12/24 09:20:24;;;;;;;2.08;0.75;;;11.00;76.90;;;;;;4956256;29;20023;-77
2023/12/24 09:22:50;;;;;;;1.13;0.77;;;11.20;74.60;;;;;;4958623;29;20474;-77
2023/12/24 09:25:15;;;;;;;0.60;0.57;;;11.30;74.40;;;;;;4973218;28;20070;-77
2023/12/24 09:27:41;;;;;;;0.15;0.15;;;11.30;73.40;;;;;;4958245;29;20046;-75
2023/12/24 09:30:07;;;;;;;0.25;0.13;;;11.40;72.70;;;;;;4957889;29;20113;-77
2023/12/24 09:32:33;;;;;;;0.80;0.65;;;11.50;72.90;;;;;;4958446;29;20094;-77
2023/12/24 09:34:58;;;;;;;0.35;0.35;;;11.50;71.40;;;;;;4957101;28;20486;-77
2023/12/24 09:37:25;;;;;;;0.85;0.30;;;11.50;72.10;;;;;;4955717;29;20030;-75
2023/12/24 09:39:52;;;;;;;0.90;0.40;;;11.50;72.40;;;;;;4956124;29;20039;-76
2023/12/24 09:42:18;;;;;;;0.75;0.38;;;11.40;75.90;;;;;;4958194;29;20019;-76
2023/12/24 09:44:44;;;;;;;3.75;0.63;;;11.20;80.00;;;;;;4956932;28;20584;-77
2023/12/24 09:47:10;;;;;;;0.95;0.80;;;10.90;83.90;;;;;;4956698;29;20023;-79
2023/12/24 09:49:36;;;;;;;0.60;0.60;;;10.70;84.40;;;;;;4958634;29;20506;-77
2023/12/24 09:52:02;;;;;;;1.60;1.20;;;10.50;85.80;;;;;;4958391;29;20027;-77
2023/12/24 09:54:27;;;;;;;2.53;0.35;;;10.50;87.40;;;;;;4955824;28;20469;-77
2023/12/24 09:56:54;;;;;;;1.08;0.50;;;10.30;87.20;;;;;;4956963;29;20027;-77
2023/12/24 09:59:19;;;;;;;1.42;0.60;;;10.20;86.90;;;;;;4957963;29;20043;-77
2023/12/24 10:01:45;;;;;;;0.40;0.40;;;10.20;90.40;;;;;;4956719;29;20023;-78
2023/12/24 10:04:12;;;;;;;1.10;0.50;;;10.20;85.00;;;;;;4957427;28;20024;-78
2023/12/24 10:06:52;;;;;;;0.57;0.57;;;10.30;84.20;;;;;;4972310;28;20055;-76
2023/12/24 10:09:19;;;;;;;1.30;0.40;;;10.40;82.70;;;;;;4956397;29;20379;-76
2023/12/24 10:11:44;;;;;;;0.75;0.35;;;10.40;83.20;;;;;;4956533;29;20034;-77
2023/12/24 10:14:12;;;;;;;3.50;1.20;;;10.40;83.50;;;;;;4958706;28;20019;-77
2023/12/24 10:16:44;;;;;;;4.50;1.90;;;10.50;83.00;;;;;;4957092;29;20031;-76
2023/12/24 10:19:24;;;;;;;7.38;2.67;;;10.50;83.40;;;;;;4957255;29;20031;-77
2023/12/24 10:22:04;;;;;;;2.92;1.20;;;10.50;84.40;;;;;;4958324;29;20019;-77
2023/12/24 10:24:30;;;;;;;1.27;0.60;;;10.50;83.40;;;;;;4971049;28;20434;-76
2023/12/24 10:27:06;;;;;;;0.43;0.40;;;10.60;82.80;;;;;;4954187;29;20069;-77
2023/12/24 10:29:33;;;;;;;2.40;0.60;;;10.60;82.60;;;;;;4957276;29;20034;-77
2023/12/24 10:31:59;;;;;;;1.75;0.70;;;10.60;82.90;;;;;;4957010;29;20031;-78
2023/12/24 10:34:25;;;;;;;6.05;1.00;;;10.60;85.50;;;;;;4957988;28;20027;-77
2023/12/24 10:36:50;;;;;;;5.75;2.40;;;10.50;88.80;;;;;;4954127;28;20038;-78
2023/12/24 10:39:19;;;;;;;3.45;2.08;;;10.50;91.50;;;;;;4972649;28;20585;-77
2023/12/24 10:41:44;;;;;;;4.68;2.25;;;10.40;91.50;;;;;;4957223;29;20034;-78
2023/12/24 10:44:10;;;;;;;4.57;2.90;;;10.30;92.60;;;;;;4956014;28;20024;-77
2023/12/24 10:46:36;;;;;;;4.93;3.50;;;10.20;94.10;;;;;;4958078;29;20027;-76
2023/12/24 10:49:02;;;;;;;3.85;2.70;;;10.10;95.30;;;;;;4956106;29;20024;-76
2023/12/24 10:51:27;;;;;;;3.65;2.08;;;9.90;96.10;;;;;;4966403;29;20047;-77
2023/12/24 10:53:53;;;;;;;3.85;2.38;;;9.80;97.50;;;;;;4966098;28;20406;-77
2023/12/24 10:56:31;;;;;;;3.83;1.67;;;9.70;97.60;;;;;;4960485;29;20113;-76
2023/12/24 10:59:10;;;;;;;9.07;3.50;;;9.60;98.30;;;;;;4957406;29;20027;-77
2023/12/24 11:01:36;;;;;;;8.95;3.58;;;9.60;98.70;;;;;;4956303;29;20034;-77
2023/12/24 11:04:02;;;;;;;12.18;5.47;;;9.70;95.20;;;;;;4956558;28;20020;-77
2023/12/24 11:06:37;;;;;;;3.08;1.70;;;9.90;92.90;;;;;;4955629;29;20025;-78
2023/12/24 11:09:14;;;;;;;2.45;1.02;;;10.20;90.60;;;;;;4955741;29;20038;-79
2023/12/24 11:11:54;;;;;;;6.05;1.58;;;10.60;88.60;;;;;;4957254;29;20113;-78
2023/12/24 11:14:38;;;;;;;3.20;0.85;;;10.90;88.60;;;;;;4956389;28;20035;-78
2023/12/24 11:17:05;;;;;;;2.33;1.00;;;11.00;88.80;;;;;;4956500;29;20027;-76
2023/12/24 11:19:35;;;;;;;7.10;1.85;;;11.10;89.40;;;;;;4956086;29;20023;-77
2023/12/24 11:22:09;;;;;;;1.17;1.05;;;11.10;90.30;;;;;;4956538;29;20023;-77
2023/12/24 11:24:41;;;;;;;2.03;1.23;;;11.00;90.40;;;;;;4955677;28;20028;-78
2023/12/24 11:27:08;;;;;;;1.50;1.10;;;11.10;90.30;;;;;;4956078;29;20078;-76
2023/12/24 11:29:52;;;;;;;5.65;1.73;;;11.10;90.20;;;;;;4955071;29;20031;-77
2023/12/24 11:32:24;;;;;;;1.08;0.68;;;11.10;89.90;;;;;;4954938;29;20055;-77
2023/12/24 11:34:54;;;;;;;1.50;0.80;;;11.30;88.20;;;;;;4970493;28;20126;-76
2023/12/24 11:37:36;;;;;;;0.88;0.57;;;11.40;87.10;;;;;;4955931;29;20081;-78
2023/12/24 11:40:15;;;;;;;1.48;0.80;;;11.50;87.20;;;;;;4970098;28;20031;-78
2023/12/24 11:42:51;;;;;;;0.55;0.47;;;11.50;89.60;;;;;;4955920;29;20055;-79
2023/12/24 11:45:29;;;;;;;1.10;0.77;;;11.60;86.50;;;;;;4954719;28;20544;-78
2023/12/24 11:47:55;;;;;;;0.80;0.70;;;11.60;85.80;;;;;;4956462;28;20030;-77
2023/12/24 11:50:21;;;;;;;0.93;0.60;;;11.60;86.70;;;;;;4959982;29;20019;-78
2023/12/24 11:52:48;;;;;;;5.45;0.60;;;11.60;86.40;;;;;;4960103;29;20023;-76
2023/12/24 11:55:15;;;;;;;0.68;0.40;;;11.60;87.30;;;;;;4958738;28;20039;-79
2023/12/24 11:57:41;;;;;;;1.48;0.80;;;11.50;91.10;;;;;;4959506;29;20023;-78
2023/12/24 12:00:28;;;;;;;0.63;0.40;;;11.60;94.10;;;;;;4958118;29;20031;-79
2023/12/24 12:02:55;;;;;;;1.15;0.70;;;11.60;89.60;;;;;;4959244;29;20023;-79
2023/12/24 12:05:23;;;;;;;0.75;0.70;;;11.50;89.50;;;;;;4959461;28;20047;-78
2023/12/24 12:07:48;;;;;;;1.33;0.63;;;11.50;89.40;;;;;;4957820;29;20030;-80
2023/12/24 12:10:14;;;;;;;6.50;0.80;;;11.50;89.60;;;;;;4958393;29;20031;-77
2023/12/24 12:12:39;;;;;;;1.58;0.70;;;11.40;90.10;;;;;;4958992;29;20122;-77
2023/12/24 12:15:06;;;;;;;4.32;0.85;;;11.30;90.20;;;;;;4959841;28;20035;-77
2023/12/24 12:17:31;;;;;;;1.35;0.80;;;11.30;89.90;;;;;;4959519;29;20031;-77
2023/12/24 12:19:57;;;;;;;1.83;0.65;;;11.30;89.60;;;;;;4959821;29;20054;-77
2023/12/24 12:22:22;;;;;;;2.38;0.55;;;11.40;89.10;;;;;;4960006;29;20023;-79
2023/12/24 12:24:48;;;;;;;1.15;0.80;;;11.40;89.60;;;;;;4974296;28;20023;-77
2023/12/24 12:27:13;;;;;;;0.60;0.60;;;11.30;88.50;;;;;;4974693;28;20059;-77
2023/12/24 12:29:39;;;;;;;10.50;4.50;;;11.40;88.20;;;;;;4959045;29;20030;-79
2023/12/24 12:32:05;;;;;;;6.28;2.95;;;11.40;87.50;;;;;;4974520;28;20020;-79
2023/12/24 12:34:31;;;;;;;0.88;0.50;;;11.40;87.70;;;;;;4959602;28;20035;-77
2023/12/24 12:36:56;;;;;;;3.17;1.40;;;11.40;88.30;;;;;;4959268;29;20482;-80
2023/12/24 12:39:22;;;;;;;4.30;0.85;;;11.40;88.40;;;;;;4974573;28;20035;-78
2023/12/24 12:41:47;;;;;;;1.55;0.95;;;11.30;89.50;;;;;;4959502;29;20030;-78
2023/12/24 12:44:13;;;;;;;2.38;0.85;;;11.30;89.40;;;;;;4957830;28;20038;-78
2023/12/24 12:46:39;;;;;;;8.30;0.93;;;11.20;90.10;;;;;;4974063;28;20094;-76
2023/12/24 12:49:05;;;;;;;5.43;2.60;;;11.20;90.30;;;;;;4957888;29;20506;-78